Time;durP1;ratioP1;P1;durP2;ratioP2;P2;SDS_P1;SDS_P2;PMS_P1;PMS_P2;Temp;Humidity;BMP_temperature;BMP_pressure;BME280_temperature;BME280_humidity;BME280_pressure;Samples;Min_cycle;Max_cycle;Signal;HPM_P1;HPM_P2
2022/06/04 00:02:22;;;;;;;4.90;4.60;;;17.70;99.90;;;;;;5055709;28;20193;-61
2022/06/04 00:04:50;;;;;;;5.13;4.60;;;17.70;99.90;;;;;;5056593;28;20195;-61
2022/06/04 00:07:20;;;;;;;4.80;4.50;;;17.70;99.90;;;;;;5054784;28;20556;-60
2022/06/04 00:15:30;;;;;;;4.67;4.17;;;17.70;99.90;;;;;;5053573;28;20199;-62
2022/06/04 00:17:59;;;;;;;3.93;3.83;;;17.70;99.90;;;;;;5049044;28;20568;-61
2022/06/04 00:20:28;;;;;;;4.30;4.00;;;17.70;99.90;;;;;;5052856;28;20198;-61
2022/06/04 00:23:03;;;;;;;4.07;3.73;;;17.70;99.90;;;;;;5053528;28;20201;-61
2022/06/04 00:25:33;;;;;;;9.63;4.13;;;17.70;99.90;;;;;;5072756;28;20220;-61
2022/06/04 00:28:03;;;;;;;4.23;3.87;;;17.60;99.90;;;;;;5052794;28;20629;-60
2022/06/04 00:30:32;;;;;;;3.97;3.40;;;17.60;99.90;;;;;;5047701;28;20197;-60
2022/06/04 00:33:01;;;;;;;4.80;3.57;;;17.60;99.90;;;;;;5055142;28;20715;-60
2022/06/04 00:35:29;;;;;;;4.20;3.80;;;17.70;99.90;;;;;;5068276;28;20206;-60
2022/06/04 00:37:58;;;;;;;4.13;3.83;;;17.70;99.90;;;;;;5052931;28;20218;-61
2022/06/04 00:40:34;;;;;;;4.73;3.10;;;17.70;99.90;;;;;;5046893;28;20243;-60
2022/06/04 00:43:03;;;;;;;4.03;3.30;;;17.60;99.90;;;;;;5060771;28;20196;-61
2022/06/04 00:46:07;;;;;;;4.17;3.47;;;17.60;99.90;;;;;;5067272;28;20251;-61
2022/06/04 00:48:36;;;;;;;3.60;3.27;;;17.60;99.90;;;;;;5040315;28;20694;-61
2022/06/04 00:51:06;;;;;;;5.57;3.20;;;17.60;99.90;;;;;;5052459;28;20276;-61
2022/06/04 00:53:36;;;;;;;5.17;3.20;;;17.60;99.90;;;;;;5052770;28;20203;-61
2022/06/04 00:56:15;;;;;;;3.30;3.20;;;17.50;99.90;;;;;;5053955;28;20193;-61
2022/06/04 00:59:08;;;;;;;3.70;3.40;;;17.50;99.90;;;;;;5054860;28;20668;-61
2022/06/04 01:01:47;;;;;;;3.60;3.30;;;17.50;99.90;;;;;;5051974;28;20206;-61
2022/06/04 01:07:18;;;;;;;3.70;3.30;;;17.40;99.90;;;;;;5053417;28;20287;-61
2022/06/04 01:10:01;;;;;;;5.07;3.23;;;17.30;99.90;;;;;;5050555;28;20561;-61
2022/06/04 01:12:55;;;;;;;3.93;3.20;;;17.30;99.90;;;;;;5046858;28;20196;-61
2022/06/04 01:15:39;;;;;;;3.33;2.97;;;17.30;99.90;;;;;;5051224;28;20212;-62
2022/06/04 01:18:22;;;;;;;3.80;3.10;;;17.30;99.90;;;;;;5049357;28;20291;-60
2022/06/04 01:20:58;;;;;;;5.67;2.97;;;17.30;99.90;;;;;;5082586;28;20203;-61
2022/06/04 01:24:03;;;;;;;6.07;3.40;;;17.30;99.90;;;;;;5051144;28;20713;-60
2022/06/04 01:26:52;;;;;;;3.50;3.20;;;17.30;99.90;;;;;;5032010;28;20203;-61
2022/06/04 01:29:25;;;;;;;3.97;3.20;;;17.30;99.90;;;;;;5051169;28;20228;-61
2022/06/04 01:32:01;;;;;;;3.10;2.90;;;17.30;99.90;;;;;;5056477;28;20203;-61
2022/06/04 01:34:37;;;;;;;4.30;3.33;;;17.20;99.90;;;;;;5051896;28;20198;-60
2022/06/04 01:37:10;;;;;;;4.30;2.87;;;17.20;99.90;;;;;;5052740;28;20757;-60
2022/06/04 01:42:34;;;;;;;4.30;3.13;;;17.20;99.90;;;;;;5042898;28;20197;-60
2022/06/04 01:45:08;;;;;;;2.83;2.63;;;17.30;99.90;;;;;;5051935;28;20731;-61
2022/06/04 01:47:37;;;;;;;5.03;2.63;;;17.20;99.90;;;;;;5052817;28;20202;-61
2022/06/04 01:50:15;;;;;;;7.40;3.10;;;17.20;99.90;;;;;;5048745;28;20220;-60
2022/06/04 01:52:44;;;;;;;6.50;3.27;;;17.20;99.90;;;;;;5052930;28;20280;-60
2022/06/04 01:55:19;;;;;;;3.47;2.93;;;17.20;99.90;;;;;;5049563;28;20205;-61
2022/06/04 01:57:57;;;;;;;3.87;3.10;;;17.20;99.90;;;;;;5050995;28;20197;-60
2022/06/04 02:00:29;;;;;;;3.43;3.20;;;17.10;99.90;;;;;;5051005;28;20186;-60
2022/06/04 02:03:03;;;;;;;3.90;2.77;;;17.10;99.90;;;;;;5054746;28;20205;-60
2022/06/04 02:05:36;;;;;;;2.70;2.60;;;17.10;99.90;;;;;;5040610;28;20279;-60
2022/06/04 02:08:08;;;;;;;5.33;2.47;;;17.10;99.90;;;;;;5055191;28;20204;-61
2022/06/04 02:10:40;;;;;;;5.70;3.10;;;17.10;99.90;;;;;;5050506;28;21027;-61
2022/06/04 02:13:14;;;;;;;3.40;3.10;;;17.10;99.90;;;;;;5053513;28;20194;-60
2022/06/04 02:15:50;;;;;;;3.67;2.93;;;17.00;99.90;;;;;;5050430;28;20259;-60
2022/06/04 02:18:18;;;;;;;6.07;3.37;;;17.00;99.90;;;;;;5048245;28;20202;-60
2022/06/04 02:20:47;;;;;;;2.70;2.60;;;17.00;99.90;;;;;;5050208;28;20309;-60
2022/06/04 02:23:16;;;;;;;3.83;3.13;;;17.00;99.90;;;;;;5051986;28;20187;-61
2022/06/04 02:25:45;;;;;;;3.67;2.83;;;17.00;99.90;;;;;;5049987;28;20271;-60
2022/06/04 02:28:15;;;;;;;3.27;3.00;;;17.00;99.90;;;;;;5077624;28;20198;-62
2022/06/04 02:30:53;;;;;;;5.07;3.17;;;16.90;99.90;;;;;;5051369;28;20277;-61
2022/06/04 02:33:34;;;;;;;3.60;2.80;;;16.90;99.90;;;;;;5046545;28;20732;-61
2022/06/04 02:36:08;;;;;;;3.50;3.03;;;16.90;99.90;;;;;;5049804;28;20238;-61
2022/06/04 02:38:44;;;;;;;4.47;3.37;;;16.80;99.90;;;;;;5041656;28;20228;-61
2022/06/04 02:41:17;;;;;;;5.83;2.97;;;16.80;99.90;;;;;;5056244;28;20649;-61
2022/06/04 02:43:52;;;;;;;3.43;2.80;;;16.80;99.90;;;;;;5050378;28;20199;-61
2022/06/04 02:46:27;;;;;;;3.13;2.90;;;16.80;99.90;;;;;;5050651;28;20258;-61
2022/06/04 02:49:02;;;;;;;4.60;3.10;;;16.70;99.90;;;;;;5049242;28;20226;-60
2022/06/04 02:51:35;;;;;;;3.13;2.90;;;16.70;99.90;;;;;;5052671;28;20218;-60
2022/06/04 02:54:07;;;;;;;3.60;2.67;;;16.70;99.90;;;;;;5050428;28;20278;-60
2022/06/04 02:56:38;;;;;;;3.50;2.67;;;16.60;99.90;;;;;;5052824;28;20205;-61
2022/06/04 02:59:10;;;;;;;3.07;2.80;;;16.60;99.90;;;;;;5049744;28;20219;-60
2022/06/04 03:01:43;;;;;;;4.90;2.90;;;16.60;99.90;;;;;;5054775;28;20188;-60
2022/06/04 03:04:12;;;;;;;2.70;2.60;;;16.60;99.90;;;;;;5049975;28;20558;-60
2022/06/04 03:06:41;;;;;;;2.70;2.60;;;16.60;99.90;;;;;;5069679;28;20308;-61
2022/06/04 03:09:13;;;;;;;3.10;2.90;;;16.50;99.90;;;;;;5053770;28;20195;-60
2022/06/04 03:11:44;;;;;;;3.00;2.90;;;16.50;99.90;;;;;;5050169;28;20207;-61
2022/06/04 03:14:16;;;;;;;3.03;2.93;;;16.50;99.90;;;;;;5050240;28;20204;-60
2022/06/04 03:16:47;;;;;;;3.73;3.07;;;16.40;99.90;;;;;;5046406;28;20692;-61
2022/06/04 03:19:16;;;;;;;4.40;2.97;;;16.40;99.90;;;;;;5047467;28;20271;-61
2022/06/04 03:21:45;;;;;;;3.63;3.33;;;16.40;99.90;;;;;;5052232;28;20213;-61
2022/06/04 03:24:15;;;;;;;2.93;2.73;;;16.40;99.90;;;;;;5053788;28;20237;-61
2022/06/04 03:26:43;;;;;;;3.70;2.73;;;16.40;99.90;;;;;;5047062;28;20208;-61
2022/06/04 03:29:13;;;;;;;3.00;2.80;;;16.40;99.90;;;;;;5047742;28;20201;-61
2022/06/04 03:31:42;;;;;;;3.50;3.10;;;16.30;99.90;;;;;;5048083;28;20213;-61
2022/06/04 03:34:10;;;;;;;3.10;2.90;;;16.30;99.90;;;;;;5042530;28;20215;-61
2022/06/04 03:36:40;;;;;;;3.20;3.00;;;16.30;99.90;;;;;;5051698;28;20294;-61
2022/06/04 03:39:10;;;;;;;3.03;2.83;;;16.30;99.90;;;;;;5029209;28;20639;-61
2022/06/04 03:41:40;;;;;;;3.37;3.07;;;16.20;99.90;;;;;;5059216;28;20250;-61
2022/06/04 03:44:08;;;;;;;4.10;3.13;;;16.20;99.90;;;;;;5051563;28;20220;-61
2022/06/04 03:46:38;;;;;;;3.53;3.13;;;16.20;99.90;;;;;;5052661;28;20192;-61
2022/06/04 03:49:07;;;;;;;3.23;2.93;;;16.20;99.90;;;;;;5044028;28;20194;-61
2022/06/04 03:51:37;;;;;;;5.90;3.20;;;16.20;99.90;;;;;;5050948;28;20211;-61
2022/06/04 03:54:06;;;;;;;3.47;2.97;;;16.20;99.90;;;;;;5049250;28;20205;-61
2022/06/04 03:56:34;;;;;;;3.83;3.30;;;16.10;99.90;;;;;;5049797;28;20272;-60
2022/06/04 03:59:03;;;;;;;3.77;3.20;;;16.10;99.90;;;;;;5047920;28;20603;-61
2022/06/04 04:01:32;;;;;;;3.23;3.00;;;16.00;99.90;;;;;;5048852;28;20262;-61
2022/06/04 04:04:40;;;;;;;3.30;2.67;;;16.00;99.90;;;;;;5052337;28;20556;-61
2022/06/04 04:07:45;;;;;;;3.13;2.93;;;15.90;99.90;;;;;;5051018;28;20250;-61
2022/06/04 04:10:15;;;;;;;3.10;2.90;;;15.90;99.90;;;;;;5048919;28;20204;-61
2022/06/04 04:12:44;;;;;;;3.37;3.07;;;15.80;99.90;;;;;;5040717;28;20193;-61
2022/06/04 04:15:13;;;;;;;4.97;3.30;;;15.80;99.90;;;;;;5042236;28;20211;-61
2022/06/04 04:17:42;;;;;;;3.07;2.87;;;15.80;99.90;;;;;;5049462;28;20204;-61
2022/06/04 04:20:16;;;;;;;3.23;3.03;;;15.80;99.90;;;;;;5043583;28;20213;-61
2022/06/04 04:22:45;;;;;;;4.90;3.33;;;15.70;99.90;;;;;;5049437;28;20197;-61
2022/06/04 04:25:15;;;;;;;3.33;3.13;;;15.70;99.90;;;;;;5046629;28;20676;-61
2022/06/04 04:27:44;;;;;;;3.50;2.97;;;15.70;99.90;;;;;;5050354;28;20184;-61
2022/06/04 04:30:19;;;;;;;3.00;2.80;;;15.70;99.90;;;;;;5045984;28;20185;-61
2022/06/04 04:32:48;;;;;;;3.60;3.30;;;15.80;99.90;;;;;;5053231;28;20564;-61
2022/06/04 04:35:20;;;;;;;2.97;2.77;;;15.80;99.90;;;;;;5055072;28;20224;-61
2022/06/04 04:37:49;;;;;;;4.90;3.10;;;15.80;99.90;;;;;;5045195;28;20204;-61
2022/06/04 04:40:20;;;;;;;3.10;3.00;;;15.80;99.90;;;;;;5042884;28;20657;-61
2022/06/04 04:42:48;;;;;;;3.50;3.20;;;15.80;99.90;;;;;;5050804;28;20540;-61
2022/06/04 04:45:18;;;;;;;4.40;3.17;;;15.80;99.90;;;;;;5051053;28;20656;-61
2022/06/04 04:47:48;;;;;;;3.27;3.17;;;15.80;99.90;;;;;;5044755;28;20194;-61
2022/06/04 04:50:23;;;;;;;3.77;3.20;;;15.80;99.90;;;;;;5048430;28;20715;-61
2022/06/04 04:52:53;;;;;;;3.97;3.43;;;15.80;99.90;;;;;;5053739;28;20201;-60
2022/06/04 04:55:26;;;;;;;3.47;3.17;;;15.80;99.90;;;;;;5058573;28;20570;-60
2022/06/04 04:57:55;;;;;;;3.77;3.43;;;15.70;99.90;;;;;;5054525;28;20280;-60
2022/06/04 05:00:24;;;;;;;3.70;3.43;;;15.60;99.90;;;;;;5051235;28;20232;-61
2022/06/04 05:02:52;;;;;;;4.30;3.30;;;15.60;99.90;;;;;;5075036;28;20228;-60
2022/06/04 05:05:22;;;;;;;3.27;3.10;;;15.60;99.90;;;;;;5050252;28;20424;-61
2022/06/04 05:07:50;;;;;;;3.33;3.13;;;15.60;99.90;;;;;;5051848;28;20205;-61
2022/06/04 05:10:19;;;;;;;6.50;3.50;;;15.60;99.90;;;;;;5056061;28;20275;-60
2022/06/04 05:12:50;;;;;;;3.60;3.30;;;15.60;99.90;;;;;;5046407;28;20945;-61
2022/06/04 05:15:19;;;;;;;6.53;3.47;;;15.60;99.90;;;;;;5055257;28;20204;-61
2022/06/04 05:17:48;;;;;;;3.63;3.30;;;15.70;99.90;;;;;;5054638;28;20194;-61
2022/06/04 05:20:16;;;;;;;5.37;3.40;;;15.70;99.90;;;;;;5045898;28;20556;-61
2022/06/04 05:22:46;;;;;;;3.77;3.47;;;15.70;99.90;;;;;;5050148;28;20255;-61
2022/06/04 05:25:14;;;;;;;4.37;3.73;;;15.80;99.90;;;;;;5053886;28;20216;-60
2022/06/04 05:27:43;;;;;;;3.70;3.10;;;15.80;99.90;;;;;;5053023;28;20193;-61
2022/06/04 05:30:12;;;;;;;3.60;3.37;;;15.80;99.90;;;;;;5056490;28;20272;-60
2022/06/04 05:32:40;;;;;;;3.60;3.40;;;15.70;99.90;;;;;;5052507;28;20193;-61
2022/06/04 05:35:09;;;;;;;5.47;3.90;;;15.70;99.90;;;;;;5051542;28;20224;-61
2022/06/04 05:37:37;;;;;;;4.00;3.70;;;15.70;99.90;;;;;;5009375;28;20199;-61
2022/06/04 05:40:09;;;;;;;3.70;3.50;;;15.60;99.90;;;;;;5006923;28;20689;-61
2022/06/04 05:42:37;;;;;;;4.87;3.70;;;15.60;99.90;;;;;;5012829;28;20226;-61
2022/06/04 05:45:06;;;;;;;4.13;3.80;;;15.70;99.90;;;;;;5011836;28;20281;-61
2022/06/04 05:47:35;;;;;;;6.73;3.80;;;15.80;99.90;;;;;;5012102;28;20206;-61
2022/06/04 05:50:03;;;;;;;6.60;3.83;;;15.80;99.90;;;;;;5010554;28;21145;-61
2022/06/04 05:52:31;;;;;;;4.27;3.87;;;15.80;99.90;;;;;;5002276;28;20255;-61
2022/06/04 05:55:00;;;;;;;8.20;4.27;;;15.80;99.90;;;;;;5015075;28;20226;-61
2022/06/04 05:57:30;;;;;;;5.60;4.20;;;15.80;99.90;;;;;;5012936;28;20198;-61
2022/06/04 05:59:59;;;;;;;5.53;3.70;;;15.80;99.90;;;;;;5009772;28;20208;-61
2022/06/04 06:02:28;;;;;;;6.30;4.20;;;15.90;99.90;;;;;;5010217;28;20271;-61
2022/06/04 06:04:56;;;;;;;4.20;3.87;;;15.90;99.90;;;;;;5008865;28;20200;-61
2022/06/04 06:07:24;;;;;;;5.67;4.10;;;15.90;99.90;;;;;;5010614;28;20203;-61
2022/06/04 06:09:52;;;;;;;4.27;3.97;;;15.90;99.90;;;;;;5009167;28;20198;-61
2022/06/04 06:12:21;;;;;;;5.83;3.70;;;15.90;99.90;;;;;;5012345;28;20194;-60
2022/06/04 06:14:50;;;;;;;5.70;4.07;;;15.90;99.90;;;;;;5009120;28;20196;-61
2022/06/04 06:17:18;;;;;;;4.40;4.00;;;15.90;99.90;;;;;;5010006;28;20640;-61
2022/06/04 06:19:47;;;;;;;6.87;4.43;;;16.00;99.90;;;;;;5010336;28;20615;-61
2022/06/04 06:22:15;;;;;;;4.50;4.10;;;16.00;99.90;;;;;;5011732;28;20735;-61
2022/06/04 06:24:43;;;;;;;4.20;3.90;;;16.10;99.90;;;;;;5009605;28;20211;-60
2022/06/04 06:27:11;;;;;;;4.00;3.70;;;16.10;99.90;;;;;;5004133;28;20671;-61
2022/06/04 06:29:40;;;;;;;5.47;4.00;;;16.10;99.90;;;;;;5007789;28;20198;-61
2022/06/04 06:32:09;;;;;;;7.13;4.20;;;16.10;99.90;;;;;;5008078;28;20604;-61
2022/06/04 06:34:38;;;;;;;10.23;4.33;;;16.10;99.90;;;;;;5011085;28;20199;-60
2022/06/04 06:37:06;;;;;;;4.43;4.07;;;16.00;99.90;;;;;;5044891;28;20231;-61
2022/06/04 06:39:34;;;;;;;5.13;4.10;;;16.00;99.90;;;;;;5049820;28;20195;-61
2022/06/04 06:42:03;;;;;;;4.70;4.30;;;16.10;99.90;;;;;;5031271;28;20301;-61
2022/06/04 06:44:31;;;;;;;4.60;4.20;;;16.10;99.90;;;;;;5050610;28;20198;-61
2022/06/04 06:46:59;;;;;;;4.40;4.10;;;16.00;99.90;;;;;;5051366;28;20201;-61
2022/06/04 06:49:30;;;;;;;4.60;4.00;;;16.00;99.90;;;;;;5046168;28;20272;-60
2022/06/04 06:52:01;;;;;;;4.17;3.87;;;16.00;99.90;;;;;;5051144;28;20298;-61
2022/06/04 06:54:33;;;;;;;4.70;4.30;;;16.00;99.90;;;;;;5043104;28;20203;-61
2022/06/04 06:57:03;;;;;;;4.70;4.40;;;16.10;99.90;;;;;;5050353;28;20675;-61
2022/06/04 06:59:32;;;;;;;4.70;4.40;;;16.20;99.90;;;;;;5045579;28;20232;-61
2022/06/04 07:02:01;;;;;;;5.50;4.77;;;16.30;99.90;;;;;;5085004;28;20214;-61
2022/06/04 07:04:31;;;;;;;4.60;4.20;;;16.30;99.90;;;;;;5048019;28;20629;-61
2022/06/04 07:07:01;;;;;;;6.17;4.37;;;16.50;99.90;;;;;;5052035;28;20574;-61
2022/06/04 07:09:32;;;;;;;6.50;4.60;;;16.70;99.90;;;;;;5047274;28;20196;-61
2022/06/04 07:12:02;;;;;;;5.90;4.17;;;16.80;99.90;;;;;;5044960;28;20667;-61
2022/06/04 07:14:30;;;;;;;5.43;4.97;;;17.00;99.90;;;;;;5048712;28;20200;-61
2022/06/04 07:16:59;;;;;;;5.00;4.43;;;17.10;99.90;;;;;;5051719;28;20281;-61
2022/06/04 07:19:28;;;;;;;6.27;4.23;;;17.20;99.90;;;;;;5050789;28;20204;-61
2022/06/04 07:21:58;;;;;;;5.33;4.77;;;17.30;99.90;;;;;;5050037;28;20219;-61
2022/06/04 07:24:26;;;;;;;6.03;5.03;;;17.30;99.90;;;;;;5065829;28;20675;-60
2022/06/04 07:26:55;;;;;;;5.80;4.67;;;17.30;99.90;;;;;;5052616;28;20536;-61
2022/06/04 07:29:23;;;;;;;5.57;5.07;;;17.40;99.90;;;;;;5044339;28;21096;-61
2022/06/04 07:31:52;;;;;;;5.60;5.00;;;17.40;99.90;;;;;;5048461;28;20190;-61
2022/06/04 07:34:20;;;;;;;5.27;4.83;;;17.50;99.90;;;;;;5057192;28;20185;-61
2022/06/04 07:36:52;;;;;;;6.27;5.10;;;17.60;99.90;;;;;;5050385;28;20696;-61
2022/06/04 07:39:23;;;;;;;4.80;4.50;;;17.70;99.90;;;;;;5051366;28;20253;-61
2022/06/04 07:41:53;;;;;;;5.37;4.97;;;17.70;99.90;;;;;;5054064;28;20209;-61
2022/06/04 07:44:24;;;;;;;5.23;4.77;;;17.80;99.90;;;;;;5050905;28;20224;-61
2022/06/04 07:46:54;;;;;;;11.47;5.10;;;17.70;99.90;;;;;;5052170;28;20197;-60
2022/06/04 07:49:23;;;;;;;6.47;5.20;;;17.70;99.90;;;;;;5049224;28;20195;-61
2022/06/04 07:51:52;;;;;;;9.70;5.73;;;17.70;99.90;;;;;;5050616;28;20201;-61
2022/06/04 07:54:22;;;;;;;5.57;5.07;;;17.80;99.90;;;;;;5051120;28;20587;-61
2022/06/04 07:56:53;;;;;;;6.87;5.67;;;17.90;99.90;;;;;;5050151;28;20656;-61
2022/06/04 07:59:23;;;;;;;5.43;5.03;;;18.10;99.90;;;;;;5052694;28;20246;-61
2022/06/04 08:01:51;;;;;;;7.43;5.57;;;18.10;99.90;;;;;;5066257;28;20567;-61
2022/06/04 08:04:19;;;;;;;7.33;5.50;;;18.30;99.90;;;;;;5039753;28;20203;-61
2022/06/04 08:06:48;;;;;;;9.63;5.47;;;18.50;99.90;;;;;;5049922;28;20207;-61
2022/06/04 08:09:16;;;;;;;6.00;5.47;;;18.70;99.90;;;;;;5052863;28;20198;-61
2022/06/04 08:11:46;;;;;;;5.53;5.03;;;19.00;99.90;;;;;;5045878;28;20221;-61
2022/06/04 08:14:17;;;;;;;6.00;5.47;;;19.20;99.90;;;;;;5050633;28;20185;-61
2022/06/04 08:16:51;;;;;;;6.00;5.50;;;19.30;99.90;;;;;;5050130;28;20219;-61
2022/06/04 08:19:21;;;;;;;6.27;5.50;;;19.60;99.90;;;;;;5064594;28;21445;-61
2022/06/04 08:21:49;;;;;;;5.73;5.23;;;19.70;99.90;;;;;;5054341;28;20293;-61
2022/06/04 08:24:19;;;;;;;9.03;6.10;;;19.70;99.90;;;;;;5059575;28;20575;-61
2022/06/04 08:26:53;;;;;;;7.50;5.30;;;19.70;99.90;;;;;;5058720;28;20189;-61
2022/06/04 08:29:22;;;;;;;5.87;4.97;;;19.60;99.90;;;;;;5051090;28;22049;-61
2022/06/04 08:31:50;;;;;;;10.57;5.83;;;19.70;99.90;;;;;;5085386;28;20189;-60
2022/06/04 08:34:18;;;;;;;7.37;6.13;;;19.70;99.90;;;;;;5054961;28;20196;-61
2022/06/04 08:36:47;;;;;;;6.80;5.90;;;19.80;99.90;;;;;;5053297;28;20233;-61
2022/06/04 08:39:16;;;;;;;6.10;5.60;;;19.90;99.90;;;;;;5052305;28;20607;-61
2022/06/04 08:41:58;;;;;;;6.67;5.87;;;19.90;99.90;;;;;;5052887;28;20201;-61
2022/06/04 08:44:29;;;;;;;6.50;5.90;;;19.90;99.90;;;;;;5047825;28;20219;-61
2022/06/04 08:47:02;;;;;;;9.73;6.03;;;20.20;99.90;;;;;;5051538;28;20286;-61
2022/06/04 08:49:36;;;;;;;6.37;5.87;;;20.40;99.90;;;;;;5050634;28;20204;-61
2022/06/04 08:52:12;;;;;;;7.07;6.30;;;20.70;99.90;;;;;;5053579;28;20211;-62
2022/06/04 08:57:34;;;;;;;8.33;5.97;;;21.30;99.90;;;;;;5053472;28;20201;-61
2022/06/04 09:00:09;;;;;;;8.93;6.13;;;21.50;99.90;;;;;;5053148;28;20198;-61
2022/06/04 09:02:55;;;;;;;6.23;5.53;;;21.80;99.90;;;;;;5048869;28;20581;-61
2022/06/04 09:05:31;;;;;;;6.27;5.70;;;21.90;99.90;;;;;;5056701;28;20285;-61
2022/06/04 09:08:06;;;;;;;6.73;5.73;;;21.90;99.90;;;;;;5048741;28;20299;-61
2022/06/04 09:10:40;;;;;;;11.33;6.37;;;21.90;99.90;;;;;;5042693;28;20228;-62
2022/06/04 09:13:17;;;;;;;6.83;6.13;;;22.10;99.90;;;;;;5052154;28;20215;-61
2022/06/04 09:15:48;;;;;;;9.63;5.73;;;22.20;99.90;;;;;;5053951;28;20204;-61
2022/06/04 09:18:19;;;;;;;7.97;5.67;;;22.40;99.90;;;;;;5053889;28;20191;-62
2022/06/04 09:20:50;;;;;;;7.47;6.47;;;22.40;99.90;;;;;;5054730;28;20184;-62
2022/06/04 09:23:25;;;;;;;6.73;6.13;;;22.40;99.90;;;;;;5053861;28;20687;-62
2022/06/04 09:25:59;;;;;;;7.03;5.77;;;22.50;99.90;;;;;;5047936;28;20222;-62
2022/06/04 09:28:39;;;;;;;7.70;5.93;;;22.50;99.90;;;;;;5051831;28;20246;-61
2022/06/04 09:31:22;;;;;;;9.20;6.80;;;22.50;99.90;;;;;;5045872;28;20234;-61
2022/06/04 09:34:00;;;;;;;6.83;5.90;;;22.50;99.90;;;;;;5052892;28;21242;-62
2022/06/04 09:36:31;;;;;;;7.23;6.47;;;22.60;99.90;;;;;;5052521;28;20306;-62
2022/06/04 09:39:01;;;;;;;8.67;6.67;;;23.00;99.90;;;;;;5048927;28;20197;-61
2022/06/04 09:41:31;;;;;;;7.67;7.00;;;23.20;99.90;;;;;;5042759;28;20646;-61
2022/06/04 09:44:04;;;;;;;7.20;6.60;;;23.40;99.90;;;;;;5052470;28;20219;-62
2022/06/04 09:46:33;;;;;;;7.43;6.80;;;23.60;99.90;;;;;;5060625;28;20208;-61
2022/06/04 09:49:05;;;;;;;9.90;7.07;;;23.70;99.90;;;;;;5065275;28;20283;-61
2022/06/04 09:51:41;;;;;;;8.73;7.70;;;23.90;99.90;;;;;;5046714;28;20220;-62
2022/06/04 09:54:23;;;;;;;9.03;7.07;;;24.00;99.90;;;;;;5047431;28;20272;-61
2022/06/04 09:56:54;;;;;;;8.43;6.77;;;23.90;99.90;;;;;;5050157;28;20204;-62
2022/06/04 09:59:28;;;;;;;7.33;6.63;;;24.20;99.90;;;;;;5050209;28;20195;-62
2022/06/04 10:01:59;;;;;;;10.60;7.10;;;24.50;99.90;;;;;;5049130;28;20212;-62
2022/06/04 10:04:41;;;;;;;8.00;6.43;;;24.80;99.90;;;;;;5044070;28;20217;-62
2022/06/04 10:07:13;;;;;;;8.80;7.10;;;24.70;99.90;;;;;;5046953;28;20224;-62
2022/06/04 10:09:58;;;;;;;7.50;6.80;;;25.00;99.90;;;;;;5049126;28;20246;-61
2022/06/04 10:15:31;;;;;;;8.38;7.47;;;25.20;99.90;;;;;;5048465;28;20204;-62
2022/06/04 10:18:13;;;;;;;8.43;7.13;;;25.40;99.90;;;;;;5050866;28;20208;-62
2022/06/04 10:20:42;;;;;;;10.98;7.55;;;25.40;99.90;;;;;;5053259;28;20228;-62
2022/06/04 10:23:15;;;;;;;7.78;6.72;;;25.60;99.90;;;;;;5050490;28;20198;-62
2022/06/04 10:26:00;;;;;;;8.32;7.53;;;25.60;99.90;;;;;;5047628;28;20217;-61
2022/06/04 10:28:40;;;;;;;7.75;6.97;;;25.60;99.90;;;;;;5048708;28;20189;-62
2022/06/04 10:31:22;;;;;;;8.55;7.63;;;25.70;99.90;;;;;;5044807;28;20724;-61
2022/06/04 10:33:56;;;;;;;7.60;6.78;;;25.60;99.90;;;;;;5046671;28;20196;-62
2022/06/04 10:36:43;;;;;;;8.63;7.65;;;25.70;99.90;;;;;;5044522;28;20236;-61
2022/06/04 10:39:24;;;;;;;9.85;7.63;;;25.90;99.90;;;;;;5048762;28;20694;-62
2022/06/04 10:42:00;;;;;;;10.35;8.18;;;26.10;99.90;;;;;;5046963;28;20211;-62
2022/06/04 10:44:42;;;;;;;8.75;7.80;;;26.20;99.90;;;;;;5044161;28;20302;-62
2022/06/04 10:47:21;;;;;;;8.77;7.10;;;26.10;99.90;;;;;;5043400;28;20196;-61
2022/06/04 10:50:14;;;;;;;11.35;7.40;;;26.30;99.90;;;;;;5042641;28;20270;-62
2022/06/04 10:52:45;;;;;;;8.48;7.35;;;26.60;99.90;;;;;;5074742;28;20201;-62
2022/06/04 10:55:21;;;;;;;8.95;7.90;;;26.80;99.90;;;;;;5052248;28;20271;-61
2022/06/04 10:58:00;;;;;;;8.55;7.80;;;26.60;99.90;;;;;;5052223;28;20204;-62
2022/06/04 11:00:36;;;;;;;8.23;7.53;;;26.10;99.90;;;;;;5055416;28;20215;-61
2022/06/04 11:03:13;;;;;;;7.90;7.15;;;25.90;99.90;;;;;;5054946;28;20217;-61
2022/06/04 11:05:47;;;;;;;8.02;7.40;;;25.80;99.90;;;;;;5043926;28;20190;-61
2022/06/04 11:08:19;;;;;;;7.90;7.00;;;26.10;99.90;;;;;;5048602;28;20200;-62
2022/06/04 11:10:52;;;;;;;11.30;7.45;;;26.30;99.90;;;;;;5053977;28;20199;-61
2022/06/04 11:13:25;;;;;;;9.13;8.13;;;26.30;99.90;;;;;;5051570;28;20592;-61
2022/06/04 11:16:00;;;;;;;8.37;7.57;;;26.00;99.90;;;;;;5051432;28;20193;-62
2022/06/04 11:18:43;;;;;;;9.73;8.13;;;25.80;99.90;;;;;;5051174;28;20204;-61
2022/06/04 11:21:20;;;;;;;10.13;7.80;;;25.50;99.90;;;;;;5084040;28;20220;-61
2022/06/04 11:23:54;;;;;;;9.63;8.37;;;25.60;99.90;;;;;;5052259;28;20342;-61
2022/06/04 11:26:27;;;;;;;10.73;9.03;;;25.50;99.90;;;;;;5050364;28;20188;-61
2022/06/04 11:29:02;;;;;;;9.17;7.83;;;25.30;99.90;;;;;;5052018;28;20227;-60
2022/06/04 11:31:49;;;;;;;9.60;8.60;;;25.20;99.90;;;;;;5052176;28;20291;-61
2022/06/04 11:34:49;;;;;;;14.27;8.37;;;25.30;99.90;;;;;;5050744;28;20200;-61
2022/06/04 11:37:32;;;;;;;12.17;8.23;;;25.60;99.90;;;;;;5053955;28;20233;-61
2022/06/04 11:40:15;;;;;;;13.33;8.43;;;25.70;99.90;;;;;;5049611;28;20212;-62
2022/06/04 11:42:57;;;;;;;8.90;7.00;;;25.80;99.90;;;;;;5053332;28;20242;-61
2022/06/04 11:45:45;;;;;;;10.47;8.10;;;25.80;99.90;;;;;;5044220;28;20228;-61
2022/06/04 11:48:30;;;;;;;8.03;7.23;;;26.00;99.90;;;;;;5046776;28;20920;-61
2022/06/04 11:51:10;;;;;;;11.77;8.00;;;26.00;99.90;;;;;;5050613;28;20770;-61
2022/06/04 11:53:47;;;;;;;8.63;7.50;;;25.80;99.90;;;;;;5041433;28;20557;-61
2022/06/04 11:56:21;;;;;;;13.60;9.47;;;25.80;99.90;;;;;;5054138;28;20591;-60
2022/06/04 11:59:11;;;;;;;8.33;7.63;;;25.70;99.90;;;;;;5054920;28;20279;-60
2022/06/04 12:01:43;;;;;;;9.80;7.97;;;25.90;99.90;;;;;;5055547;28;20601;-60
2022/06/04 12:04:20;;;;;;;9.90;8.23;;;25.90;99.90;;;;;;5059970;28;20211;-61
2022/06/04 12:06:55;;;;;;;12.57;9.13;;;25.90;99.90;;;;;;5088568;28;20660;-60
2022/06/04 12:09:28;;;;;;;11.27;8.40;;;25.70;99.90;;;;;;5055928;28;20193;-61
2022/06/04 12:12:02;;;;;;;12.93;8.60;;;25.70;99.90;;;;;;5057179;28;20559;-61
2022/06/04 12:14:40;;;;;;;11.07;8.40;;;25.70;99.90;;;;;;5050007;28;20193;-60
2022/06/04 12:17:13;;;;;;;8.63;7.60;;;25.70;99.90;;;;;;5055429;28;20224;-60
2022/06/04 12:25:37;;;;;;;11.93;8.30;;;25.00;99.90;;;;;;5057673;28;20273;-61
2022/06/04 12:28:22;;;;;;;10.03;8.57;;;25.20;99.90;;;;;;5054609;28;20230;-61
2022/06/04 12:30:51;;;;;;;10.00;9.00;;;25.50;99.90;;;;;;5055456;28;20282;-60
2022/06/04 12:33:32;;;;;;;10.20;7.77;;;25.40;99.90;;;;;;5055898;28;20204;-61
2022/06/04 12:36:03;;;;;;;9.47;8.57;;;25.50;99.90;;;;;;5054974;28;20238;-61
2022/06/04 12:38:37;;;;;;;11.03;9.10;;;25.80;99.90;;;;;;5054435;28;20200;-61
2022/06/04 12:41:11;;;;;;;11.37;9.10;;;25.80;99.90;;;;;;5048387;28;20208;-61
2022/06/04 12:43:41;;;;;;;14.23;9.90;;;25.80;99.90;;;;;;5059952;28;20215;-61
2022/06/04 12:46:15;;;;;;;13.93;9.00;;;25.70;99.90;;;;;;5054799;28;20202;-61
2022/06/04 12:48:57;;;;;;;11.57;8.77;;;25.50;99.90;;;;;;5046631;28;20285;-60
2022/06/04 12:51:59;;;;;;;9.10;8.30;;;25.20;99.90;;;;;;5079324;28;20232;-61
2022/06/04 12:54:45;;;;;;;12.00;9.33;;;25.60;99.90;;;;;;5041515;28;20210;-61
2022/06/04 12:57:25;;;;;;;11.17;10.00;;;25.70;99.90;;;;;;5048908;28;20199;-60
2022/06/04 13:00:09;;;;;;;12.37;9.80;;;25.70;99.90;;;;;;5052547;28;20223;-60
2022/06/04 13:02:42;;;;;;;13.53;8.93;;;25.70;99.90;;;;;;5055097;28;20203;-61
2022/06/04 13:05:16;;;;;;;10.60;9.60;;;25.70;99.90;;;;;;5053407;28;20227;-61
2022/06/04 13:07:55;;;;;;;12.37;8.90;;;25.90;99.90;;;;;;5037783;28;20695;-60
2022/06/04 13:10:34;;;;;;;12.93;8.93;;;25.90;99.90;;;;;;5058225;28;20191;-60
2022/06/04 13:13:13;;;;;;;10.73;8.60;;;25.80;99.90;;;;;;5050225;28;20196;-61
2022/06/04 13:15:52;;;;;;;12.60;10.30;;;25.70;99.90;;;;;;5050386;28;20227;-60
2022/06/04 13:18:25;;;;;;;10.70;9.63;;;25.90;99.90;;;;;;5055105;28;20231;-61
2022/06/04 13:20:58;;;;;;;11.97;8.93;;;26.10;99.90;;;;;;5082720;28;20212;-61
2022/06/04 13:23:37;;;;;;;11.27;9.30;;;26.40;99.90;;;;;;5054736;28;20192;-60
2022/06/04 13:26:20;;;;;;;10.93;9.37;;;26.30;99.90;;;;;;5085974;28;20214;-61
2022/06/04 13:28:50;;;;;;;10.50;8.50;;;26.20;99.90;;;;;;5053377;28;20593;-61
2022/06/04 13:31:21;;;;;;;14.13;8.90;;;26.40;99.90;;;;;;5054268;28;20222;-60
2022/06/04 13:33:51;;;;;;;10.13;8.90;;;26.20;99.90;;;;;;5054626;28;20532;-60
2022/06/04 13:36:22;;;;;;;8.83;7.97;;;26.20;99.90;;;;;;5053886;28;20287;-60
2022/06/04 13:38:54;;;;;;;12.33;8.70;;;26.30;99.90;;;;;;5054600;28;20193;-61
2022/06/04 13:44:20;;;;;;;10.90;8.27;;;26.50;99.90;;;;;;5054979;28;20199;-61